Time;durP1;ratioP1;P1;durP2;ratioP2;P2;SDS_P1;SDS_P2;PMS_P1;PMS_P2;Temp;Humidity;BMP_temperature;BMP_pressure;BME280_temperature;BME280_humidity;BME280_pressure;Samples;Min_cycle;Max_cycle;Signal;HPM_P1;HPM_P2
2023/05/07 00:00:33;;;;;;;3.13;0.90;;;;;;;;;;5073468;28;20059;-79
2023/05/07 00:02:58;;;;;;;2.03;1.00;;;;;;;;;;5073609;28;20281;-79
2023/05/07 00:05:24;;;;;;;1.67;1.00;;;;;;;;;;5055444;28;20426;-79
2023/05/07 00:07:50;;;;;;;2.38;0.93;;;;;;;;;;5072859;28;20821;-79
2023/05/07 00:10:15;;;;;;;2.78;1.20;;;;;;;;;;5073198;28;20051;-79
2023/05/07 00:12:40;;;;;;;3.50;1.30;;;;;;;;;;5072186;28;20024;-79
2023/05/07 00:15:06;;;;;;;2.47;1.00;;;;;;;;;;5073034;28;20264;-79
2023/05/07 00:17:32;;;;;;;3.03;1.50;;;;;;;;;;5072583;28;20048;-79
2023/05/07 00:19:58;;;;;;;1.88;0.90;;;;;;;;;;5073032;28;20534;-79
2023/05/07 00:22:23;;;;;;;2.90;1.07;;;;;;;;;;5073087;28;20099;-79
2023/05/07 00:24:48;;;;;;;2.77;1.10;;;;;;;;;;5072743;28;20261;-79
2023/05/07 00:27:13;;;;;;;2.90;1.13;;;;;;;;;;5054490;28;20296;-79
2023/05/07 00:29:39;;;;;;;2.60;0.90;;;;;;;;;;5072501;28;20044;-79
2023/05/07 00:32:04;;;;;;;2.13;1.00;;;;;;;;;;5072711;28;20246;-79
2023/05/07 00:34:29;;;;;;;1.90;1.05;;;;;;;;;;5072719;28;20398;-79
2023/05/07 00:36:55;;;;;;;2.47;1.15;;;;;;;;;;5054563;28;20028;-79
2023/05/07 00:39:20;;;;;;;2.30;1.03;;;;;;;;;;5072623;28;20025;-79
2023/05/07 00:41:45;;;;;;;3.70;1.20;;;;;;;;;;5072414;28;20272;-79
2023/05/07 00:44:11;;;;;;;2.63;1.27;;;;;;;;;;5054791;28;20078;-79
2023/05/07 00:46:36;;;;;;;2.87;1.30;;;;;;;;;;5054343;28;20073;-79
2023/05/07 00:49:01;;;;;;;3.53;1.00;;;;;;;;;;5072408;28;20285;-79
2023/05/07 00:51:27;;;;;;;3.50;1.33;;;;;;;;;;5072603;28;20028;-79
2023/05/07 00:53:53;;;;;;;2.25;1.20;;;;;;;;;;5072320;28;20024;-79
2023/05/07 00:56:18;;;;;;;2.75;1.30;;;;;;;;;;5072429;28;20114;-79
2023/05/07 00:58:43;;;;;;;2.83;1.10;;;;;;;;;;5054011;28;20392;-79
2023/05/07 01:01:09;;;;;;;3.70;1.45;;;;;;;;;;5070758;28;20108;-79
2023/05/07 01:03:35;;;;;;;1.67;1.30;;;;;;;;;;5072502;28;20017;-79
2023/05/07 01:06:01;;;;;;;2.80;1.20;;;;;;;;;;5072406;28;20359;-79
2023/05/07 01:08:29;;;;;;;2.75;1.20;;;;;;;;;;5071745;28;20119;-79
2023/05/07 01:10:55;;;;;;;3.92;1.65;;;;;;;;;;5072187;28;20028;-79
2023/05/07 01:13:20;;;;;;;3.13;1.60;;;;;;;;;;5072086;28;20489;-79
2023/05/07 01:15:45;;;;;;;3.45;1.33;;;;;;;;;;5071925;28;20020;-79
2023/05/07 01:18:11;;;;;;;3.30;1.13;;;;;;;;;;5071712;28;20012;-79
2023/05/07 01:20:36;;;;;;;3.42;1.15;;;;;;;;;;5072160;28;20253;-79
2023/05/07 01:23:03;;;;;;;3.53;1.52;;;;;;;;;;5054206;28;20032;-79
2023/05/07 01:25:28;;;;;;;2.45;1.40;;;;;;;;;;5071345;28;20029;-79
2023/05/07 01:27:53;;;;;;;3.22;1.42;;;;;;;;;;5071553;28;20111;-79
2023/05/07 01:30:20;;;;;;;2.53;1.50;;;;;;;;;;5072005;28;20429;-79
2023/05/07 01:32:57;;;;;;;2.05;1.30;;;;;;;;;;5071836;28;20025;-79
2023/05/07 01:35:26;;;;;;;2.15;1.50;;;;;;;;;;5071612;28;20063;-79
2023/05/07 01:37:51;;;;;;;2.88;1.52;;;;;;;;;;5071730;28;20541;-79
2023/05/07 01:40:17;;;;;;;3.92;1.42;;;;;;;;;;5071790;28;20146;-79
2023/05/07 01:42:43;;;;;;;2.45;1.58;;;;;;;;;;5070505;28;20367;-79
2023/05/07 01:45:08;;;;;;;2.47;1.55;;;;;;;;;;5071602;28;20497;-79
2023/05/07 01:47:33;;;;;;;4.07;1.50;;;;;;;;;;5071640;28;20470;-79
2023/05/07 01:49:59;;;;;;;2.27;1.67;;;;;;;;;;5071611;28;20016;-79
2023/05/07 01:52:24;;;;;;;2.10;1.42;;;;;;;;;;5071770;28;20258;-79
2023/05/07 01:54:50;;;;;;;2.72;1.30;;;;;;;;;;5071668;28;20029;-79
2023/05/07 01:57:15;;;;;;;2.92;1.60;;;;;;;;;;5071437;28;20028;-79
2023/05/07 01:59:40;;;;;;;2.83;1.50;;;;;;;;;;5071411;28;20086;-79
2023/05/07 02:02:05;;;;;;;3.83;1.80;;;;;;;;;;5072024;28;20820;-79
2023/05/07 02:04:31;;;;;;;2.23;1.30;;;;;;;;;;5071583;28;20261;-79
2023/05/07 02:06:56;;;;;;;2.70;1.77;;;;;;;;;;5071051;28;20286;-79
2023/05/07 02:09:22;;;;;;;2.97;1.70;;;;;;;;;;5071435;28;20025;-79
2023/05/07 02:11:48;;;;;;;1.95;1.42;;;;;;;;;;5071549;28;20244;-79
2023/05/07 02:14:13;;;;;;;3.00;1.80;;;;;;;;;;5071370;28;20016;-79
2023/05/07 02:16:38;;;;;;;2.13;1.30;;;;;;;;;;5071340;28;20261;-79
2023/05/07 02:19:03;;;;;;;2.83;1.80;;;;;;;;;;5071615;28;20073;-79
2023/05/07 02:21:28;;;;;;;3.33;1.90;;;;;;;;;;5071336;28;20021;-79
2023/05/07 02:23:54;;;;;;;4.30;2.00;;;;;;;;;;5053265;28;20263;-79
2023/05/07 02:26:19;;;;;;;2.78;1.83;;;;;;;;;;5070998;28;20272;-79
2023/05/07 02:28:44;;;;;;;2.30;1.70;;;;;;;;;;5053336;28;20142;-79
2023/05/07 02:31:09;;;;;;;3.00;1.70;;;;;;;;;;5071438;28;20345;-79
2023/05/07 02:33:35;;;;;;;4.23;2.10;;;;;;;;;;5071296;28;20275;-79
2023/05/07 02:36:09;;;;;;;3.22;1.75;;;;;;;;;;5071132;28;20747;-79
2023/05/07 02:38:35;;;;;;;3.03;1.67;;;;;;;;;;5074998;28;20016;-79
2023/05/07 02:41:00;;;;;;;2.72;1.50;;;;;;;;;;5074854;28;20020;-79
2023/05/07 02:43:25;;;;;;;3.60;1.90;;;;;;;;;;5074896;28;20078;-79
2023/05/07 02:45:59;;;;;;;4.30;2.10;;;;;;;;;;5074561;28;20319;-79
2023/05/07 02:48:25;;;;;;;5.43;2.22;;;;;;;;;;5074369;28;20822;-79
2023/05/07 02:50:50;;;;;;;4.57;1.90;;;;;;;;;;5074805;28;20020;-79
2023/05/07 02:53:15;;;;;;;3.10;2.00;;;;;;;;;;5074765;28;20284;-79
2023/05/07 02:55:40;;;;;;;2.53;1.93;;;;;;;;;;5074393;28;20257;-79
2023/05/07 02:58:05;;;;;;;3.03;2.10;;;;;;;;;;5074469;28;20280;-79
2023/05/07 03:00:31;;;;;;;3.20;1.80;;;;;;;;;;5074755;28;20240;-79
2023/05/07 03:02:56;;;;;;;3.87;1.93;;;;;;;;;;5074600;28;20258;-79
2023/05/07 03:05:21;;;;;;;2.07;1.80;;;;;;;;;;5073725;28;20258;-79
2023/05/07 03:07:47;;;;;;;4.20;2.20;;;;;;;;;;5074330;28;20276;-79
2023/05/07 03:10:12;;;;;;;3.15;1.92;;;;;;;;;;5074501;28;20024;-79
2023/05/07 03:12:37;;;;;;;2.42;1.70;;;;;;;;;;5056438;28;20021;-79
2023/05/07 03:15:03;;;;;;;2.80;1.87;;;;;;;;;;5074260;28;20387;-79
2023/05/07 03:17:28;;;;;;;4.38;2.05;;;;;;;;;;5074215;28;20606;-79
2023/05/07 03:19:53;;;;;;;2.85;1.80;;;;;;;;;;5074295;28;20017;-79
2023/05/07 03:22:18;;;;;;;2.33;1.63;;;;;;;;;;5074200;28;20032;-79
2023/05/07 03:24:44;;;;;;;3.08;1.63;;;;;;;;;;5074145;28;20261;-79
2023/05/07 03:27:09;;;;;;;3.03;1.63;;;;;;;;;;5074059;28;20378;-79
2023/05/07 03:29:34;;;;;;;3.58;2.00;;;;;;;;;;5073959;28;20104;-79
2023/05/07 03:32:00;;;;;;;4.85;2.10;;;;;;;;;;5074029;28;20043;-79
2023/05/07 03:34:26;;;;;;;2.72;1.92;;;;;;;;;;5074019;28;20028;-79
2023/05/07 03:36:51;;;;;;;2.03;1.83;;;;;;;;;;5073808;28;20024;-79
2023/05/07 03:39:16;;;;;;;2.55;1.75;;;;;;;;;;5073813;28;20250;-79
2023/05/07 03:41:41;;;;;;;2.37;1.93;;;;;;;;;;5055874;28;20460;-79
2023/05/07 03:44:06;;;;;;;2.72;2.10;;;;;;;;;;5073876;28;20365;-79
2023/05/07 03:46:32;;;;;;;2.63;2.10;;;;;;;;;;5073724;28;20082;-79
2023/05/07 03:48:58;;;;;;;3.15;2.13;;;;;;;;;;5073188;28;20592;-79
2023/05/07 03:51:23;;;;;;;2.85;2.13;;;;;;;;;;5073442;28;20012;-79
2023/05/07 03:53:48;;;;;;;2.00;1.73;;;;;;;;;;5073835;28;20073;-79
2023/05/07 03:56:13;;;;;;;2.40;1.60;;;;;;;;;;5073575;28;20333;-79
2023/05/07 03:58:38;;;;;;;3.42;2.15;;;;;;;;;;5073528;28;20260;-79
2023/05/07 04:01:04;;;;;;;3.72;1.85;;;;;;;;;;5073302;28;20024;-79
2023/05/07 04:03:29;;;;;;;2.30;1.85;;;;;;;;;;5073425;28;20023;-79
2023/05/07 04:05:54;;;;;;;2.40;1.95;;;;;;;;;;5073401;28;20214;-79
2023/05/07 04:08:19;;;;;;;2.97;2.08;;;;;;;;;;5072972;28;20033;-79
2023/05/07 04:10:45;;;;;;;3.67;1.90;;;;;;;;;;5073286;28;20437;-79
2023/05/07 04:13:10;;;;;;;2.72;2.00;;;;;;;;;;5073217;28;20257;-79
2023/05/07 04:15:36;;;;;;;2.73;2.00;;;;;;;;;;5073261;28;20100;-79
2023/05/07 04:18:01;;;;;;;2.10;1.83;;;;;;;;;;5073553;28;20336;-79
2023/05/07 04:20:26;;;;;;;2.60;2.08;;;;;;;;;;5073026;28;20074;-79
2023/05/07 04:22:52;;;;;;;2.73;2.20;;;;;;;;;;5072927;28;20091;-79
2023/05/07 04:25:17;;;;;;;2.50;2.08;;;;;;;;;;5072946;28;20273;-79
2023/05/07 04:27:42;;;;;;;3.33;2.10;;;;;;;;;;5072971;28;20028;-79
2023/05/07 04:30:08;;;;;;;2.60;1.90;;;;;;;;;;5054992;28;20024;-79
2023/05/07 04:32:33;;;;;;;3.05;2.05;;;;;;;;;;5055020;28;20277;-79
2023/05/07 04:34:58;;;;;;;3.23;2.13;;;;;;;;;;5072631;28;20027;-79
2023/05/07 04:37:25;;;;;;;2.50;1.83;;;;;;;;;;5072645;28;20347;-79
2023/05/07 04:39:50;;;;;;;4.03;2.10;;;;;;;;;;5072758;28;20020;-79
2023/05/07 04:42:16;;;;;;;2.95;2.20;;;;;;;;;;5072749;28;20367;-79
2023/05/07 04:44:42;;;;;;;2.70;1.90;;;;;;;;;;5072681;28;20028;-79
2023/05/07 04:47:07;;;;;;;4.27;2.30;;;;;;;;;;5054424;28;20028;-79
2023/05/07 04:49:32;;;;;;;5.25;2.47;;;;;;;;;;5072439;28;20253;-79
2023/05/07 04:51:57;;;;;;;2.53;2.30;;;;;;;;;;5072472;28;20510;-79
2023/05/07 04:54:22;;;;;;;2.47;2.10;;;;;;;;;;5072491;28;20822;-79
2023/05/07 04:56:48;;;;;;;2.50;2.10;;;;;;;;;;5072088;28;20263;-79
2023/05/07 04:59:13;;;;;;;3.60;2.33;;;;;;;;;;5071693;28;20269;-79
2023/05/07 05:01:38;;;;;;;3.27;2.33;;;;;;;;;;5054468;28;20253;-79
2023/05/07 05:04:03;;;;;;;3.97;2.10;;;;;;;;;;5072313;28;20264;-79
2023/05/07 05:06:28;;;;;;;5.23;3.30;;;;;;;;;;5054316;28;20653;-79
2023/05/07 05:08:54;;;;;;;4.67;2.30;;;;;;;;;;5072099;28;20851;-79
2023/05/07 05:11:19;;;;;;;3.10;2.22;;;;;;;;;;5072251;28;20257;-79
2023/05/07 05:13:44;;;;;;;3.43;2.27;;;;;;;;;;5072314;28;20097;-79
2023/05/07 05:16:09;;;;;;;3.55;2.40;;;;;;;;;;5072027;28;20284;-79
2023/05/07 05:18:35;;;;;;;4.17;2.53;;;;;;;;;;5072115;28;20042;-79
2023/05/07 05:21:00;;;;;;;2.55;2.33;;;;;;;;;;5072339;28;20256;-79
2023/05/07 05:23:25;;;;;;;3.08;2.45;;;;;;;;;;5054150;28;20020;-79
2023/05/07 05:25:54;;;;;;;3.17;2.50;;;;;;;;;;5072035;28;20012;-79
2023/05/07 05:28:20;;;;;;;4.03;2.60;;;;;;;;;;5071819;28;20285;-79
2023/05/07 05:30:45;;;;;;;4.37;2.80;;;;;;;;;;5072007;28;20078;-79
2023/05/07 05:33:10;;;;;;;3.13;2.30;;;;;;;;;;5072400;28;20261;-79
2023/05/07 05:35:35;;;;;;;3.47;2.43;;;;;;;;;;5071877;28;20245;-79
2023/05/07 05:38:00;;;;;;;3.53;2.83;;;;;;;;;;5071891;28;20257;-79
2023/05/07 05:40:26;;;;;;;4.95;3.33;;;;;;;;;;5071754;28;20023;-79
2023/05/07 05:42:51;;;;;;;4.53;3.03;;;;;;;;;;5071799;28;20039;-79
2023/05/07 05:45:17;;;;;;;4.03;2.80;;;;;;;;;;5054026;28;20171;-79
2023/05/07 05:47:42;;;;;;;3.85;2.83;;;;;;;;;;5071660;28;20747;-79
2023/05/07 05:50:08;;;;;;;4.15;2.63;;;;;;;;;;5071733;28;20030;-79
2023/05/07 05:52:33;;;;;;;4.88;3.22;;;;;;;;;;5071724;28;20008;-79
2023/05/07 05:54:58;;;;;;;4.77;2.93;;;;;;;;;;5053726;28;20052;-79
2023/05/07 05:57:23;;;;;;;4.87;3.07;;;;;;;;;;5053664;28;20281;-79
2023/05/07 05:59:48;;;;;;;3.50;2.27;;;;;;;;;;5071813;28;20340;-79
2023/05/07 06:02:14;;;;;;;4.63;2.90;;;;;;;;;;5071725;28;20344;-79
2023/05/07 06:04:39;;;;;;;4.85;2.78;;;;;;;;;;5071547;28;20070;-79
2023/05/07 06:07:05;;;;;;;3.63;2.67;;;;;;;;;;5071562;28;20037;-79
2023/05/07 06:09:30;;;;;;;3.88;2.75;;;;;;;;;;5071502;28;20060;-79
2023/05/07 06:11:55;;;;;;;3.70;2.50;;;;;;;;;;5075160;28;20012;-79
2023/05/07 06:14:20;;;;;;;4.65;3.00;;;;;;;;;;5074491;28;20807;-79
2023/05/07 06:16:45;;;;;;;5.10;3.33;;;;;;;;;;5075618;28;20016;-79
2023/05/07 06:19:11;;;;;;;4.18;3.13;;;;;;;;;;5075071;28;20264;-79
2023/05/07 06:21:36;;;;;;;3.90;2.90;;;;;;;;;;5075327;28;20081;-79
2023/05/07 06:24:01;;;;;;;4.30;2.77;;;;;;;;;;5075269;28;20340;-79
2023/05/07 06:26:26;;;;;;;3.45;2.92;;;;;;;;;;5057307;28;20249;-79
2023/05/07 06:28:52;;;;;;;4.27;3.10;;;;;;;;;;5075248;28;20067;-79
2023/05/07 06:31:20;;;;;;;4.67;3.10;;;;;;;;;;5075187;28;20340;-79
2023/05/07 06:33:45;;;;;;;3.90;2.58;;;;;;;;;;5056994;28;20285;-79
2023/05/07 06:36:11;;;;;;;3.58;2.65;;;;;;;;;;5075156;28;20592;-79
2023/05/07 06:38:36;;;;;;;4.07;3.17;;;;;;;;;;5075016;28;20012;-79
2023/05/07 06:41:01;;;;;;;3.90;2.90;;;;;;;;;;5073545;28;20261;-79
2023/05/07 06:43:26;;;;;;;3.10;2.80;;;;;;;;;;5075002;28;20658;-79
2023/05/07 06:45:51;;;;;;;3.63;2.67;;;;;;;;;;5074973;28;20280;-79
2023/05/07 06:48:17;;;;;;;3.88;2.92;;;;;;;;;;5074790;28;20479;-79
2023/05/07 06:50:42;;;;;;;3.83;2.83;;;;;;;;;;5074748;28;20092;-79
2023/05/07 06:53:07;;;;;;;4.57;3.13;;;;;;;;;;5074798;28;20249;-79
2023/05/07 06:55:32;;;;;;;3.13;2.40;;;;;;;;;;5074642;28;20637;-79
2023/05/07 06:58:00;;;;;;;3.97;2.65;;;;;;;;;;5074509;28;20257;-79
2023/05/07 07:00:26;;;;;;;5.13;3.42;;;;;;;;;;5074569;28;20017;-79
2023/05/07 07:02:51;;;;;;;3.33;2.47;;;;;;;;;;5074566;28;20351;-79
2023/05/07 07:05:16;;;;;;;3.87;2.83;;;;;;;;;;5074766;28;20020;-79
2023/05/07 07:07:41;;;;;;;3.22;2.38;;;;;;;;;;5074359;28;20281;-79
2023/05/07 07:10:07;;;;;;;4.30;3.13;;;;;;;;;;5074490;28;20016;-79
2023/05/07 07:12:32;;;;;;;4.32;2.40;;;;;;;;;;5074559;28;20016;-79
2023/05/07 07:14:57;;;;;;;3.53;2.60;;;;;;;;;;5056553;28;20021;-79
2023/05/07 07:17:22;;;;;;;3.47;2.90;;;;;;;;;;5072210;28;20245;-83
2023/05/07 07:19:47;;;;;;;4.00;2.77;;;;;;;;;;5055852;28;20620;-86
2023/05/07 07:22:13;;;;;;;4.47;2.60;;;;;;;;;;5053455;28;20766;-87
2023/05/07 07:24:38;;;;;;;5.47;2.37;;;;;;;;;;5053935;28;20274;-86
2023/05/07 07:27:03;;;;;;;5.03;2.77;;;;;;;;;;5065898;28;20257;-84
2023/05/07 07:29:28;;;;;;;3.53;2.57;;;;;;;;;;5074359;28;20354;-86
2023/05/07 07:31:53;;;;;;;4.20;2.27;;;;;;;;;;5073515;28;20250;-86
2023/05/07 07:34:19;;;;;;;4.50;2.53;;;;;;;;;;5073157;28;20311;-82
2023/05/07 07:36:44;;;;;;;6.57;2.67;;;;;;;;;;5072984;28;20260;-82
2023/05/07 07:39:10;;;;;;;3.03;2.55;;;;;;;;;;5073470;28;20021;-81
2023/05/07 07:41:35;;;;;;;4.30;2.95;;;;;;;;;;5073453;28;20501;-82
2023/05/07 07:44:00;;;;;;;4.63;2.47;;;;;;;;;;5073768;28;20016;-79
2023/05/07 07:46:26;;;;;;;4.23;2.73;;;;;;;;;;5072946;28;20260;-79
2023/05/07 07:48:51;;;;;;;5.28;2.47;;;;;;;;;;5072286;28;20289;-82
2023/05/07 07:51:16;;;;;;;6.68;2.58;;;;;;;;;;5073497;28;20055;-81
2023/05/07 07:53:42;;;;;;;4.27;2.40;;;;;;;;;;5073459;28;20021;-83
2023/05/07 07:56:07;;;;;;;10.32;2.78;;;;;;;;;;5073523;28;20340;-82
2023/05/07 07:58:32;;;;;;;10.63;4.80;;;;;;;;;;5072928;28;20043;-83
2023/05/07 08:00:58;;;;;;;6.70;3.72;;;;;;;;;;5072748;28;20249;-82
2023/05/07 08:03:23;;;;;;;7.93;2.97;;;;;;;;;;5072672;28;20530;-82
2023/05/07 08:05:50;;;;;;;11.02;3.28;;;;;;;;;;5073026;28;20429;-82
2023/05/07 08:08:16;;;;;;;6.82;3.35;;;;;;;;;;5072914;28;20111;-81
2023/05/07 08:10:41;;;;;;;8.95;2.75;;;;;;;;;;5072828;28;20116;-80
2023/05/07 08:13:06;;;;;;;10.75;3.47;;;;;;;;;;5073031;28;20028;-79
2023/05/07 08:15:32;;;;;;;8.18;3.40;;;;;;;;;;5071639;28;20021;-81
2023/05/07 08:17:57;;;;;;;6.93;3.30;;;;;;;;;;5072751;28;20489;-83
2023/05/07 08:20:23;;;;;;;6.53;2.97;;;;;;;;;;5071890;28;20352;-79
2023/05/07 08:22:48;;;;;;;6.45;3.22;;;;;;;;;;5072629;28;20046;-81
2023/05/07 08:25:13;;;;;;;5.28;3.00;;;;;;;;;;5053707;28;20029;-82
2023/05/07 08:27:39;;;;;;;7.93;3.07;;;;;;;;;;5071972;28;20025;-82
2023/05/07 08:30:04;;;;;;;9.38;3.88;;;;;;;;;;5058133;28;20280;-86
2023/05/07 08:32:29;;;;;;;11.55;4.72;;;;;;;;;;5071972;28;20366;-80
2023/05/07 08:34:55;;;;;;;15.00;4.87;;;;;;;;;;5071245;28;20025;-84
2023/05/07 08:37:20;;;;;;;8.93;4.32;;;;;;;;;;5054442;28;20261;-85
2023/05/07 08:39:45;;;;;;;6.20;3.97;;;;;;;;;;5072174;28;20012;-84
2023/05/07 08:42:12;;;;;;;10.73;4.43;;;;;;;;;;5072396;28;20284;-83
2023/05/07 08:44:38;;;;;;;12.65;4.68;;;;;;;;;;5072045;28;20048;-83
2023/05/07 08:47:05;;;;;;;8.70;4.30;;;;;;;;;;5053416;28;20105;-83
2023/05/07 08:49:30;;;;;;;10.55;4.20;;;;;;;;;;5071582;28;20028;-83
2023/05/07 08:51:56;;;;;;;13.57;3.67;;;;;;;;;;5072001;28;20013;-84
2023/05/07 08:54:21;;;;;;;10.73;3.47;;;;;;;;;;5071165;28;20017;-82
2023/05/07 08:56:47;;;;;;;6.45;3.22;;;;;;;;;;5072148;28;20059;-81
2023/05/07 08:59:12;;;;;;;7.80;3.17;;;;;;;;;;5071687;28;20021;-82
2023/05/07 09:01:38;;;;;;;6.53;3.10;;;;;;;;;;5071322;28;20024;-84
2023/05/07 09:04:03;;;;;;;7.10;3.20;;;;;;;;;;5071689;28;20253;-87
2023/05/07 09:06:29;;;;;;;4.63;2.20;;;;;;;;;;5071633;28;20390;-85
2023/05/07 09:08:55;;;;;;;9.88;3.08;;;;;;;;;;5071437;28;20395;-87
2023/05/07 09:11:21;;;;;;;10.27;2.72;;;;;;;;;;5072007;28;20052;-85
2023/05/07 09:13:46;;;;;;;13.05;2.67;;;;;;;;;;5071655;28;20028;-86
2023/05/07 09:16:12;;;;;;;7.93;2.50;;;;;;;;;;5070562;28;20636;-87
2023/05/07 09:18:40;;;;;;;7.50;2.08;;;;;;;;;;5071612;28;20780;-86
2023/05/07 09:21:09;;;;;;;7.88;2.33;;;;;;;;;;5067361;28;20020;-87
2023/05/07 09:23:34;;;;;;;7.10;2.83;;;;;;;;;;5067983;28;20120;-87
2023/05/07 09:26:00;;;;;;;8.10;2.90;;;;;;;;;;5070781;28;20425;-87
2023/05/07 09:28:25;;;;;;;10.77;3.33;;;;;;;;;;5052750;28;20695;-87
2023/05/07 09:30:50;;;;;;;9.38;4.50;;;;;;;;;;5068228;28;20301;-90
2023/05/07 09:33:16;;;;;;;6.83;4.07;;;;;;;;;;5078639;28;20465;-90
2023/05/07 09:35:41;;;;;;;14.25;5.28;;;;;;;;;;5069722;28;20815;-89
2023/05/07 09:38:07;;;;;;;15.18;5.63;;;;;;;;;;5081234;28;20065;-89
2023/05/07 09:40:32;;;;;;;10.40;6.30;;;;;;;;;;5075042;28;20023;-87
2023/05/07 09:43:08;;;;;;;14.10;6.33;;;;;;;;;;5065000;28;20021;-89
2023/05/07 09:45:33;;;;;;;12.25;7.20;;;;;;;;;;5056418;28;20365;-84
2023/05/07 09:48:00;;;;;;;14.17;8.97;;;;;;;;;;5064321;28;20096;-84
2023/05/07 09:50:29;;;;;;;15.02;10.10;;;;;;;;;;5062213;28;20279;-85
2023/05/07 09:52:55;;;;;;;16.17;10.68;;;;;;;;;;5071527;28;20065;-85
2023/05/07 09:55:21;;;;;;;18.52;11.85;;;;;;;;;;5071097;28;20020;-80
2023/05/07 09:57:48;;;;;;;26.27;13.13;;;;;;;;;;5071549;28;20091;-81
2023/05/07 10:00:15;;;;;;;15.00;11.10;;;;;;;;;;5071004;28;20013;-80
2023/05/07 10:02:46;;;;;;;14.75;10.88;;;;;;;;;;5070761;28;20027;-80
2023/05/07 10:05:12;;;;;;;14.73;10.93;;;;;;;;;;5071274;28;20031;-79
2023/05/07 10:07:37;;;;;;;17.13;11.90;;;;;;;;;;5071128;28;20020;-80
2023/05/07 10:10:04;;;;;;;21.42;13.15;;;;;;;;;;5071348;28;20023;-80
2023/05/07 10:12:30;;;;;;;20.15;12.13;;;;;;;;;;5071280;28;20070;-80
2023/05/07 10:14:55;;;;;;;19.02;12.68;;;;;;;;;;5071062;28;20424;-80
2023/05/07 10:17:23;;;;;;;21.70;13.63;;;;;;;;;;5070299;28;20283;-80
2023/05/07 10:19:49;;;;;;;15.63;11.20;;;;;;;;;;5070172;28;20044;-81
2023/05/07 10:22:15;;;;;;;18.85;12.15;;;;;;;;;;5071186;28;20026;-81
2023/05/07 10:24:41;;;;;;;16.77;12.75;;;;;;;;;;5071313;28;20021;-81
2023/05/07 10:27:10;;;;;;;24.15;11.98;;;;;;;;;;5071391;28;20070;-79
2023/05/07 10:29:38;;;;;;;17.85;12.05;;;;;;;;;;5062926;28;20029;-80
2023/05/07 10:32:19;;;;;;;16.48;10.98;;;;;;;;;;5066382;28;20359;-80
2023/05/07 10:34:45;;;;;;;18.33;11.05;;;;;;;;;;5058808;28;20040;-81
2023/05/07 10:37:11;;;;;;;17.10;11.88;;;;;;;;;;5066168;28;20086;-81
2023/05/07 10:39:37;;;;;;;15.13;10.50;;;;;;;;;;5074243;28;20421;-81
2023/05/07 10:42:11;;;;;;;18.23;11.15;;;;;;;;;;5066741;28;20021;-81
2023/05/07 10:44:37;;;;;;;17.27;11.02;;;;;;;;;;5069340;28;20528;-81
2023/05/07 10:47:08;;;;;;;15.85;10.50;;;;;;;;;;5068595;28;20048;-81
2023/05/07 10:49:33;;;;;;;14.88;10.07;;;;;;;;;;5067137;28;20033;-81
2023/05/07 10:52:15;;;;;;;14.77;10.77;;;;;;;;;;5068991;28;20024;-81
2023/05/07 10:54:41;;;;;;;15.15;9.82;;;;;;;;;;5069755;28;20264;-81
2023/05/07 10:57:25;;;;;;;17.70;10.80;;;;;;;;;;5067020;28;20440;-81
2023/05/07 10:59:51;;;;;;;13.50;9.23;;;;;;;;;;5071513;28;20486;-82
2023/05/07 11:02:17;;;;;;;18.35;9.02;;;;;;;;;;5060761;28;20362;-81
2023/05/07 11:04:42;;;;;;;12.77;8.38;;;;;;;;;;5071424;28;20459;-81
2023/05/07 11:07:11;;;;;;;10.55;6.50;;;;;;;;;;5068523;28;20037;-81
2023/05/07 11:09:52;;;;;;;11.27;5.80;;;;;;;;;;5072809;28;20559;-82
2023/05/07 11:12:43;;;;;;;9.13;4.88;;;;;;;;;;5068768;28;20052;-81
2023/05/07 11:15:09;;;;;;;11.95;4.82;;;;;;;;;;5072829;28;20028;-82
2023/05/07 11:17:35;;;;;;;13.13;4.70;;;;;;;;;;5068143;28;20036;-82
2023/05/07 11:20:01;;;;;;;31.67;6.13;;;;;;;;;;5068468;28;20017;-81
2023/05/07 11:22:41;;;;;;;25.10;6.28;;;;;;;;;;5059699;28;20071;-81
2023/05/07 11:25:06;;;;;;;18.73;5.55;;;;;;;;;;5071170;28;20062;-80
2023/05/07 11:27:32;;;;;;;14.05;4.72;;;;;;;;;;5068483;28;20016;-80
2023/05/07 11:29:57;;;;;;;13.63;5.10;;;;;;;;;;5072604;28;20024;-80
2023/05/07 11:32:23;;;;;;;9.77;5.00;;;;;;;;;;5072044;28;20422;-80
2023/05/07 11:34:52;;;;;;;10.55;5.13;;;;;;;;;;5072610;28;20028;-79
2023/05/07 11:37:17;;;;;;;12.23;5.93;;;;;;;;;;5070248;28;20059;-80
2023/05/07 11:39:43;;;;;;;11.45;5.35;;;;;;;;;;5068494;28;20040;-80
2023/05/07 11:42:25;;;;;;;12.23;5.27;;;;;;;;;;5070277;28;20021;-79
2023/05/07 11:44:50;;;;;;;11.15;5.50;;;;;;;;;;5072605;28;20266;-80
2023/05/07 11:47:19;;;;;;;8.70;4.93;;;;;;;;;;5072690;28;20501;-79
2023/05/07 11:49:48;;;;;;;9.60;5.32;;;;;;;;;;5072950;28;20664;-80
2023/05/07 11:52:13;;;;;;;9.32;5.50;;;;;;;;;;5073545;28;20266;-80
2023/05/07 11:54:38;;;;;;;10.85;5.32;;;;;;;;;;5073563;28;20328;-79
2023/05/07 11:57:04;;;;;;;7.57;5.10;;;;;;;;;;5072367;28;20473;-80
2023/05/07 11:59:29;;;;;;;8.45;5.05;;;;;;;;;;5073331;28;20306;-80
2023/05/07 12:01:58;;;;;;;10.80;5.10;;;;;;;;;;5073433;28;20037;-79
2023/05/07 12:04:24;;;;;;;11.13;5.18;;;;;;;;;;5073426;28;20028;-80
2023/05/07 12:06:53;;;;;;;7.68;4.80;;;;;;;;;;5072913;28;20017;-80
2023/05/07 12:09:18;;;;;;;9.68;6.05;;;;;;;;;;5054935;28;20033;-80
2023/05/07 12:11:46;;;;;;;10.48;5.53;;;;;;;;;;5054066;28;20108;-80
2023/05/07 12:14:11;;;;;;;8.40;5.13;;;;;;;;;;5073308;28;20451;-80
2023/05/07 12:16:36;;;;;;;7.63;4.63;;;;;;;;;;5073098;28;20609;-80
2023/05/07 12:19:01;;;;;;;9.53;5.53;;;;;;;;;;5073089;28;20360;-80
2023/05/07 12:21:27;;;;;;;8.18;5.32;;;;;;;;;;5072978;28;20312;-80
2023/05/07 12:23:52;;;;;;;6.55;4.25;;;;;;;;;;5073074;28;20019;-80
2023/05/07 12:26:19;;;;;;;8.65;4.85;;;;;;;;;;5071834;28;20428;-80
2023/05/07 12:28:44;;;;;;;12.43;4.88;;;;;;;;;;5072775;28;20067;-80
2023/05/07 12:31:10;;;;;;;7.43;4.75;;;;;;;;;;5062423;28;20044;-80
2023/05/07 12:33:35;;;;;;;9.10;5.55;;;;;;;;;;5053102;28;20036;-80
2023/05/07 12:36:03;;;;;;;8.80;6.10;;;;;;;;;;5043128;28;20024;-80
2023/05/07 12:38:33;;;;;;;13.40;5.70;;;;;;;;;;5072712;28;20020;-80
2023/05/07 12:40:59;;;;;;;8.48;5.95;;;;;;;;;;5069747;28;20091;-80
2023/05/07 12:43:25;;;;;;;11.10;6.22;;;;;;;;;;5072933;28;20104;-80
2023/05/07 12:45:51;;;;;;;12.45;6.57;;;;;;;;;;5047988;28;20017;-80
2023/05/07 12:48:16;;;;;;;10.40;6.13;;;;;;;;;;5052547;28;20013;-80
2023/05/07 12:50:42;;;;;;;11.70;6.72;;;;;;;;;;5057384;28;20424;-80
2023/05/07 12:53:09;;;;;;;10.82;6.38;;;;;;;;;;5073105;28;20012;-80
2023/05/07 12:55:41;;;;;;;11.95;6.47;;;;;;;;;;5070783;28;20153;-79
2023/05/07 12:58:06;;;;;;;10.20;6.32;;;;;;;;;;5072584;28;20017;-79
2023/05/07 13:00:32;;;;;;;11.07;6.57;;;;;;;;;;5068965;28;20078;-79
2023/05/07 13:02:58;;;;;;;9.13;5.63;;;;;;;;;;5052284;28;20408;-79
2023/05/07 13:05:23;;;;;;;8.50;4.88;;;;;;;;;;5052354;28;20021;-79
2023/05/07 13:07:55;;;;;;;12.00;4.47;;;;;;;;;;5072157;28;20024;-79
2023/05/07 13:10:20;;;;;;;;;;;;;;;;;;5070517;28;20273;-79
2023/05/07 13:12:45;;;;;;;18.53;4.77;;;;;;;;;;5072246;28;19911;-79
2023/05/07 13:15:10;;;;;;;7.10;3.70;;;;;;;;;;5072173;28;20249;-79
2023/05/07 13:17:36;;;;;;;8.73;4.00;;;;;;;;;;5069044;28;20629;-79
2023/05/07 13:20:01;;;;;;;8.53;3.17;;;;;;;;;;5071573;28;20283;-79
2023/05/07 13:22:26;;;;;;;7.13;2.97;;;;;;;;;;5054369;28;20759;-79
2023/05/07 13:24:51;;;;;;;8.17;3.13;;;;;;;;;;5057936;28;20020;-79
2023/05/07 13:27:16;;;;;;;9.83;3.93;;;;;;;;;;5037313;28;20347;-79
2023/05/07 13:29:41;;;;;;;9.60;2.97;;;;;;;;;;5051793;28;20033;-79
2023/05/07 13:32:07;;;;;;;6.83;3.23;;;;;;;;;;5066133;28;20265;-79
2023/05/07 13:34:32;;;;;;;9.93;2.73;;;;;;;;;;5053940;28;20265;-79
2023/05/07 13:36:57;;;;;;;8.43;2.30;;;;;;;;;;5069879;28;20250;-79
2023/05/07 13:39:22;;;;;;;6.80;2.13;;;;;;;;;;5069772;28;20095;-79
2023/05/07 13:41:48;;;;;;;8.17;2.77;;;;;;;;;;5070650;28;20036;-79
2023/05/07 13:44:13;;;;;;;8.03;2.27;;;;;;;;;;5071895;28;20762;-80
2023/05/07 13:46:38;;;;;;;6.47;1.80;;;;;;;;;;5062039;28;20274;-79
2023/05/07 13:49:03;;;;;;;4.90;1.40;;;;;;;;;;5051349;28;20289;-79
2023/05/07 13:51:28;;;;;;;6.38;2.45;;;;;;;;;;5052576;28;20470;-79
2023/05/07 13:53:54;;;;;;;9.40;1.90;;;;;;;;;;5053929;28;20395;-79
2023/05/07 13:56:20;;;;;;;9.27;1.90;;;;;;;;;;5070769;28;20758;-79
2023/05/07 13:58:45;;;;;;;7.70;1.85;;;;;;;;;;5071595;28;20020;-79
2023/05/07 14:01:10;;;;;;;8.53;1.70;;;;;;;;;;5070066;28;20031;-79
2023/05/07 14:03:37;;;;;;;5.97;2.40;;;;;;;;;;5071641;28;20356;-80
2023/05/07 14:06:03;;;;;;;7.22;1.75;;;;;;;;;;5066665;28;20414;-79
2023/05/07 14:08:28;;;;;;;4.45;1.02;;;;;;;;;;5051944;28;20017;-78
2023/05/07 14:10:53;;;;;;;9.37;2.27;;;;;;;;;;5069216;28;20066;-78
2023/05/07 14:13:18;;;;;;;4.90;1.70;;;;;;;;;;5071565;28;20404;-79
2023/05/07 14:15:46;;;;;;;4.72;1.65;;;;;;;;;;5071248;28;20406;-79
2023/05/07 14:18:11;;;;;;;9.30;1.75;;;;;;;;;;5062183;28;20104;-79
2023/05/07 14:20:37;;;;;;;7.20;2.45;;;;;;;;;;5056479;28;20113;-79
2023/05/07 14:23:02;;;;;;;5.35;1.67;;;;;;;;;;5070064;28;20378;-79
2023/05/07 14:25:28;;;;;;;5.07;1.50;;;;;;;;;;5071085;28;20016;-80
2023/05/07 14:27:53;;;;;;;7.55;1.75;;;;;;;;;;5061505;28;20063;-79
2023/05/07 14:30:18;;;;;;;6.10;1.87;;;;;;;;;;5070379;28;20036;-79